createdAt,value
2022-08-16T00:00:22.366Z,13.05
2022-08-16T00:03:06.307Z,11.20
2022-08-16T00:05:48.260Z,9.10
2022-08-16T00:08:36.433Z,11.05
2022-08-16T00:11:15.593Z,9.27
2022-08-16T00:13:54.479Z,12.35
2022-08-16T00:17:05.644Z,9.83
2022-08-16T00:19:16.061Z,9.32
2022-08-16T00:21:46.825Z,9.75
2022-08-16T00:24:31.374Z,9.95
2022-08-16T00:27:02.346Z,10.43
2022-08-16T00:29:30.705Z,9.67
2022-08-16T00:32:05.658Z,8.82
2022-08-16T00:34:52.467Z,9.02
2022-08-16T00:37:25.125Z,11.52
2022-08-16T00:40:34.399Z,9.65
2022-08-16T00:43:42.564Z,9.90
2022-08-16T00:46:34.365Z,9.23
2022-08-16T00:49:17.237Z,11.52
2022-08-16T00:51:54.874Z,10.50
2022-08-16T00:54:27.561Z,14.88
2022-08-16T00:56:59.697Z,10.37
2022-08-16T00:59:33.025Z,12.00
2022-08-16T01:02:30.669Z,10.70
2022-08-16T01:05:09.402Z,12.07
2022-08-16T01:07:50.637Z,11.13
2022-08-16T01:10:32.355Z,9.37
2022-08-16T01:13:26.713Z,9.88
2022-08-16T01:16:04.254Z,9.63
2022-08-16T01:18:46.782Z,10.02
2022-08-16T01:21:43.895Z,10.05
2022-08-16T01:24:51.552Z,8.97
2022-08-16T01:27:34.357Z,11.77
2022-08-16T01:30:20.149Z,11.30
2022-08-16T01:32:56.403Z,13.40
2022-08-16T01:35:45.188Z,11.15
2022-08-16T01:38:25.906Z,11.90
2022-08-16T01:41:09.967Z,11.38
2022-08-16T01:43:40.672Z,12.85
2022-08-16T01:46:37.388Z,9.63
2022-08-16T01:49:16.818Z,10.60
2022-08-16T01:51:52.070Z,13.60
2022-08-16T01:54:30.861Z,12.75
2022-08-16T01:57:02.063Z,11.38
2022-08-16T01:59:32.828Z,11.52
2022-08-16T02:02:01.273Z,10.55
2022-08-16T02:04:49.079Z,9.80
2022-08-16T02:07:23.937Z,11.25
2022-08-16T02:09:58.759Z,9.65
2022-08-16T02:12:49.926Z,10.02
2022-08-16T02:15:27.596Z,10.85
2022-08-16T02:18:01.110Z,11.07
2022-08-16T02:20:33.435Z,12.30
2022-08-16T02:23:05.727Z,10.02
2022-08-16T02:25:52.195Z,11.55
2022-08-16T02:28:24.576Z,10.60
2022-08-16T02:30:55.054Z,10.30
2022-08-16T02:33:42.894Z,13.10
2022-08-16T02:36:47.655Z,10.70
2022-08-16T02:39:07.230Z,10.50
2022-08-16T02:41:39.578Z,10.30
2022-08-16T02:44:13.888Z,10.13
2022-08-16T02:46:50.665Z,11.43
2022-08-16T02:49:58.533Z,12.05
2022-08-16T02:52:24.405Z,12.30
2022-08-16T02:54:57.289Z,12.20
2022-08-16T02:57:26.531Z,9.77
2022-08-16T02:59:54.874Z,14.35
2022-08-16T03:02:31.868Z,12.00
2022-08-16T03:05:07.206Z,11.00
2022-08-16T03:07:40.346Z,11.75
2022-08-16T03:10:19.971Z,12.90
2022-08-16T03:12:55.992Z,11.07
2022-08-16T03:15:29.299Z,11.60
2022-08-16T03:17:57.927Z,11.40
2022-08-16T03:20:32.310Z,12.00
2022-08-16T03:23:05.634Z,13.70
2022-08-16T03:25:40.778Z,10.98
2022-08-16T03:28:13.377Z,14.05
2022-08-16T03:30:45.796Z,12.50
2022-08-16T03:33:17.432Z,13.73
2022-08-16T03:36:29.675Z,11.73
2022-08-16T03:38:53.937Z,10.23
2022-08-16T03:41:29.284Z,12.05
2022-08-16T03:44:13.826Z,12.48
2022-08-16T03:47:02.891Z,9.27
2022-08-16T03:49:36.704Z,12.40
2022-08-16T03:52:08.295Z,14.23
2022-08-16T03:54:38.050Z,13.90
2022-08-16T03:57:06.121Z,11.40
2022-08-16T03:59:40.137Z,11.63
2022-08-16T04:02:22.209Z,11.47
2022-08-16T04:04:54.372Z,11.93
2022-08-16T04:07:25.405Z,16.77
2022-08-16T04:09:54.102Z,12.82
2022-08-16T04:12:53.650Z,13.73
2022-08-16T04:15:13.575Z,12.33
2022-08-16T04:17:58.152Z,13.75
2022-08-16T04:20:31.359Z,12.63
2022-08-16T04:23:06.320Z,13.57
2022-08-16T04:25:38.975Z,17.33
2022-08-16T04:28:52.068Z,11.30
2022-08-16T04:30:59.002Z,12.10
2022-08-16T04:33:28.948Z,12.60
2022-08-16T04:36:04.750Z,11.40
2022-08-16T04:38:34.720Z,10.77
2022-08-16T04:41:04.027Z,14.03
2022-08-16T04:43:38.604Z,11.00
2022-08-16T04:46:19.762Z,12.52
2022-08-16T04:49:04.808Z,13.82
2022-08-16T04:51:36.159Z,15.48
2022-08-16T04:54:04.866Z,14.47
2022-08-16T04:56:35.799Z,16.27
2022-08-16T04:59:11.541Z,14.57
2022-08-16T05:01:58.040Z,21.40
2022-08-16T05:04:30.022Z,22.23
2022-08-16T05:07:00.487Z,20.87
2022-08-16T05:09:45.306Z,17.70
2022-08-16T05:12:22.254Z,17.17
2022-08-16T05:15:02.443Z,14.27
2022-08-16T05:17:41.836Z,11.43
2022-08-16T05:20:38.466Z,16.37
2022-08-16T05:23:07.068Z,10.98
2022-08-16T05:25:40.965Z,12.18
2022-08-16T05:28:21.894Z,12.50
2022-08-16T05:31:04.915Z,14.18
2022-08-16T05:33:37.372Z,12.57
2022-08-16T05:36:14.301Z,12.70
2022-08-16T05:42:51.770Z,12.27
2022-08-16T05:45:24.584Z,14.38
2022-08-16T05:48:00.413Z,10.60
2022-08-16T05:50:46.372Z,11.73
2022-08-16T05:53:24.361Z,10.55
2022-08-16T05:56:19.683Z,13.30
2022-08-16T05:58:50.507Z,10.25
2022-08-16T06:01:20.273Z,11.57
2022-08-16T06:03:52.717Z,11.77
2022-08-16T06:06:32.593Z,11.80
2022-08-16T06:09:03.509Z,17.98
2022-08-16T06:11:31.815Z,15.57
2022-08-16T06:14:02.704Z,11.33
2022-08-16T06:16:38.406Z,10.93
2022-08-16T06:19:06.841Z,12.30
2022-08-16T06:21:39.032Z,10.50
2022-08-16T06:24:52.770Z,12.35
2022-08-16T06:26:57.286Z,12.10
2022-08-16T06:29:31.165Z,11.48
2022-08-16T06:32:00.556Z,14.05
2022-08-16T06:34:54.890Z,13.70
2022-08-16T06:37:17.603Z,11.35
2022-08-16T06:39:50.088Z,17.43
2022-08-16T06:42:47.520Z,14.68
2022-08-16T06:45:43.692Z,17.20
2022-08-16T06:48:32.456Z,17.17
2022-08-16T06:51:05.607Z,14.10
2022-08-16T06:53:36.906Z,19.33
2022-08-16T06:56:31.642Z,16.52
2022-08-16T06:59:27.098Z,14.45
2022-08-16T07:02:00.038Z,14.85
2022-08-16T07:04:33.107Z,12.23
2022-08-16T07:07:17.039Z,13.23
2022-08-16T07:09:44.941Z,13.85
2022-08-16T07:12:15.308Z,15.38
2022-08-16T07:14:48.272Z,12.82
2022-08-16T07:17:21.936Z,13.85
2022-08-16T07:20:03.310Z,11.17
2022-08-16T07:22:52.910Z,15.30
2022-08-16T07:25:40.609Z,12.68
2022-08-16T07:28:20.613Z,14.52
2022-08-16T07:30:55.016Z,17.50
2022-08-16T07:33:53.184Z,16.33
2022-08-16T07:36:34.298Z,14.57
2022-08-16T07:39:04.007Z,11.73
2022-08-16T07:41:36.594Z,13.90
2022-08-16T07:44:16.118Z,15.98
2022-08-16T07:46:47.866Z,11.10
2022-08-16T07:49:25.206Z,12.35
2022-08-16T07:51:56.151Z,11.00
2022-08-16T07:54:32.164Z,14.05
2022-08-16T07:57:11.308Z,10.27
2022-08-16T07:59:45.532Z,11.30
2022-08-16T08:02:20.208Z,12.63
2022-08-16T08:04:56.148Z,11.07
2022-08-16T08:07:28.827Z,12.05
2022-08-16T08:10:03.946Z,11.73
2022-08-16T08:12:44.684Z,11.63
2022-08-16T08:15:16.449Z,15.88
2022-08-16T08:17:55.049Z,9.80
2022-08-16T08:20:30.255Z,12.45
2022-08-16T08:23:03.820Z,11.73
2022-08-16T08:25:54.152Z,12.20
2022-08-16T08:28:26.963Z,14.60
2022-08-16T08:31:03.968Z,11.30
2022-08-16T08:33:37.275Z,13.73
2022-08-16T08:36:08.750Z,12.00
2022-08-16T08:38:45.188Z,11.13
2022-08-16T08:41:19.694Z,10.70
2022-08-16T08:43:54.127Z,10.52
2022-08-16T08:46:24.025Z,15.23
2022-08-16T08:49:02.204Z,13.13
2022-08-16T08:51:38.833Z,11.43
2022-08-16T08:54:20.575Z,14.27
2022-08-16T08:56:54.228Z,11.35
2022-08-16T08:59:55.462Z,12.15
2022-08-16T09:02:25.538Z,12.15
2022-08-16T09:04:57.832Z,16.37
2022-08-16T09:07:26.908Z,12.75
2022-08-16T09:10:06.289Z,13.63
2022-08-16T09:12:47.949Z,11.90
2022-08-16T09:15:21.966Z,13.23
2022-08-16T09:17:55.885Z,11.97
2022-08-16T09:20:29.801Z,16.05
2022-08-16T09:23:00.103Z,11.88
2022-08-16T09:25:35.916Z,14.48
2022-08-16T09:28:09.036Z,10.77
2022-08-16T09:30:44.256Z,11.40
2022-08-16T09:33:19.743Z,11.30
2022-08-16T09:35:53.814Z,11.57
2022-08-16T09:38:32.341Z,9.23
2022-08-16T09:41:03.191Z,11.23
2022-08-16T09:43:59.294Z,8.50
2022-08-16T09:46:45.215Z,8.55
2022-08-16T09:49:12.110Z,8.73
2022-08-16T09:51:40.976Z,9.20
2022-08-16T09:54:16.742Z,8.68
2022-08-16T09:56:52.856Z,10.87
2022-08-16T09:59:25.209Z,10.30
2022-08-16T10:01:55.230Z,12.63
2022-08-16T10:04:31.517Z,10.00
2022-08-16T10:07:14.947Z,14.27
2022-08-16T10:09:54.938Z,12.33
2022-08-16T10:12:55.869Z,8.93
2022-08-16T10:15:30.229Z,8.88
2022-08-16T10:18:01.876Z,8.65
2022-08-16T10:20:38.746Z,11.20
2022-08-16T10:23:17.277Z,8.80
2022-08-16T10:27:20.626Z,8.00
2022-08-16T10:28:41.822Z,8.27
2022-08-16T10:31:16.759Z,9.43
2022-08-16T10:33:46.204Z,8.80
2022-08-16T10:36:39.225Z,9.80
2022-08-16T10:39:09.216Z,10.40
2022-08-16T10:41:38.974Z,10.25
2022-08-16T10:44:09.551Z,9.85
2022-08-16T10:46:41.849Z,11.85
2022-08-16T10:49:12.618Z,11.93
2022-08-16T10:52:02.871Z,9.85
2022-08-16T10:54:33.180Z,11.95
2022-08-16T10:57:04.419Z,10.50
2022-08-16T10:59:44.106Z,10.73
2022-08-16T11:02:58.362Z,10.07
2022-08-16T11:05:14.164Z,12.00
2022-08-16T11:07:54.944Z,10.57
2022-08-16T11:13:57.260Z,10.65
2022-08-16T11:19:03.645Z,15.38
2022-08-16T11:22:23.240Z,12.88
2022-08-16T11:24:41.453Z,11.70
2022-08-16T11:27:23.739Z,14.57
2022-08-16T11:29:57.057Z,12.13
2022-08-16T11:32:31.985Z,13.02
2022-08-16T11:35:13.796Z,13.55
2022-08-16T11:38:46.561Z,12.88
2022-08-16T11:40:52.351Z,12.45
2022-08-16T11:43:26.770Z,11.13
2022-08-16T11:45:58.380Z,11.75
2022-08-16T11:48:36.107Z,11.52
2022-08-16T11:51:05.064Z,10.23
2022-08-16T11:53:46.828Z,10.27
2022-08-16T11:56:19.783Z,8.80
2022-08-16T12:02:31.839Z,14.07
2022-08-16T12:04:59.363Z,9.85
2022-08-16T12:07:29.433Z,10.90
2022-08-16T12:10:02.347Z,8.90
2022-08-16T12:12:30.780Z,10.23
2022-08-16T12:15:01.025Z,11.63
2022-08-16T12:17:31.531Z,11.23
2022-08-16T12:20:14.085Z,12.27
2022-08-16T12:22:47.515Z,10.53
2022-08-16T12:25:18.088Z,12.93
2022-08-16T12:27:49.742Z,12.43
2022-08-16T12:30:26.976Z,13.25
2022-08-16T12:33:03.369Z,14.13
2022-08-16T12:35:34.581Z,13.33
2022-08-16T12:38:37.909Z,13.35
2022-08-16T12:40:57.103Z,10.23
2022-08-16T12:43:25.791Z,13.00
2022-08-16T12:46:02.090Z,14.68
2022-08-16T12:48:52.662Z,12.73
2022-08-16T12:51:24.222Z,17.27
2022-08-16T12:53:55.473Z,19.30
2022-08-16T12:56:26.381Z,24.23
2022-08-16T12:58:56.470Z,29.92
2022-08-16T13:01:29.324Z,18.57
2022-08-16T13:04:20.789Z,13.80
2022-08-16T13:06:48.907Z,11.43
2022-08-16T13:09:23.605Z,13.68
2022-08-16T13:12:07.529Z,8.63
2022-08-16T13:14:41.244Z,8.90
2022-08-16T13:17:18.610Z,11.77
2022-08-16T13:20:07.069Z,12.88
2022-08-16T13:22:38.083Z,12.02
2022-08-16T13:25:08.797Z,10.52
2022-08-16T13:27:59.886Z,14.43
2022-08-16T13:30:37.197Z,11.20
2022-08-16T13:33:37.293Z,9.63
2022-08-16T13:36:21.048Z,10.43
2022-08-16T13:38:56.717Z,9.73
2022-08-16T13:41:26.048Z,14.07
2022-08-16T13:44:00.864Z,11.15
2022-08-16T13:46:35.361Z,9.93
2022-08-16T13:49:05.383Z,9.15
2022-08-16T13:51:33.413Z,17.70
2022-08-16T13:54:05.799Z,9.53
2022-08-16T13:56:39.444Z,10.70
2022-08-16T13:59:14.312Z,9.32
2022-08-16T14:01:54.914Z,10.93
2022-08-16T14:04:30.088Z,9.32
2022-08-16T14:07:01.753Z,8.93
2022-08-16T14:09:31.886Z,8.40
2022-08-16T14:12:09.853Z,12.38
2022-08-16T14:14:46.724Z,8.00
2022-08-16T14:17:15.042Z,8.52
2022-08-16T14:19:46.120Z,17.43
2022-08-16T14:22:31.162Z,8.20
2022-08-16T14:25:03.283Z,7.10
2022-08-16T14:27:35.559Z,8.20
2022-08-16T14:30:15.616Z,7.70
2022-08-16T14:32:46.703Z,7.43
2022-08-16T14:35:36.434Z,10.32
2022-08-16T14:38:13.583Z,7.68
2022-08-16T14:40:52.629Z,8.73
2022-08-16T14:43:23.097Z,7.05
2022-08-16T14:45:51.339Z,6.93
2022-08-16T14:48:26.445Z,9.48
2022-08-16T14:50:56.051Z,8.20
2022-08-16T14:53:24.913Z,7.35
2022-08-16T14:55:54.954Z,7.57
2022-08-16T14:58:34.719Z,7.40
2022-08-16T15:01:10.259Z,7.95
2022-08-16T15:03:42.370Z,7.43
2022-08-16T15:06:14.283Z,7.65
2022-08-16T15:08:45.192Z,8.52
2022-08-16T15:11:13.941Z,7.07
2022-08-16T15:13:41.809Z,7.53
2022-08-16T15:16:09.963Z,6.97
2022-08-16T15:18:39.370Z,8.30
2022-08-16T15:21:08.516Z,8.27
2022-08-16T15:23:37.204Z,7.90
2022-08-16T15:26:09.875Z,8.32
2022-08-16T15:28:38.462Z,7.25
2022-08-16T15:31:09.364Z,7.68
2022-08-16T15:33:43.345Z,7.80
2022-08-16T15:36:18.471Z,7.70
2022-08-16T15:39:02.851Z,9.32
2022-08-16T15:41:38.987Z,9.48
2022-08-16T15:44:21.315Z,7.93
2022-08-16T15:46:55.147Z,9.50
2022-08-16T15:49:34.681Z,10.53
2022-08-16T15:52:15.012Z,8.52
2022-08-16T15:54:53.164Z,7.65
2022-08-16T15:57:24.541Z,6.88
2022-08-16T15:59:55.894Z,8.68
2022-08-16T16:02:40.382Z,8.40
2022-08-16T16:05:10.247Z,9.15
2022-08-16T16:07:40.950Z,9.02
2022-08-16T16:10:29.753Z,10.55
2022-08-16T16:13:00.789Z,9.45
2022-08-16T16:15:33.434Z,7.90
2022-08-16T16:18:09.410Z,8.75
2022-08-16T16:20:47.438Z,8.27
2022-08-16T16:23:23.509Z,9.43
2022-08-16T16:25:53.371Z,8.57
2022-08-16T16:29:07.968Z,7.67
2022-08-16T16:31:17.190Z,8.98
2022-08-16T16:33:50.339Z,8.30
2022-08-16T16:36:22.221Z,11.35
2022-08-16T16:38:53.522Z,9.63
2022-08-16T16:41:26.525Z,11.07
2022-08-16T16:43:56.331Z,11.00
2022-08-16T16:46:40.927Z,8.38
2022-08-16T16:49:13.894Z,8.45
2022-08-16T16:51:47.207Z,10.93
2022-08-16T16:54:27.489Z,10.47
2022-08-16T16:56:58.429Z,8.60
2022-08-16T16:59:28.065Z,7.60
2022-08-16T17:02:38.812Z,10.93
2022-08-16T17:04:48.442Z,11.23
2022-08-16T17:07:17.878Z,10.57
2022-08-16T17:09:53.316Z,16.40
2022-08-16T17:12:24.999Z,10.25
2022-08-16T17:15:10.760Z,12.15
2022-08-16T17:18:00.014Z,10.02
2022-08-16T17:20:28.027Z,12.03
2022-08-16T17:22:57.396Z,13.70
2022-08-16T17:25:36.219Z,10.25
2022-08-16T17:28:57.678Z,10.18
2022-08-16T17:30:59.672Z,9.20
2022-08-16T17:33:37.258Z,19.77
2022-08-16T17:36:36.640Z,10.70
2022-08-16T17:39:08.015Z,9.20
2022-08-16T17:41:37.335Z,10.82
2022-08-16T17:44:06.441Z,10.02
2022-08-16T17:46:50.358Z,9.20
2022-08-16T17:49:20.228Z,11.10
2022-08-16T17:51:49.043Z,9.55
2022-08-16T17:54:29.790Z,10.95
2022-08-16T17:57:01.012Z,13.43
2022-08-16T17:59:29.749Z,14.83
2022-08-16T18:01:58.255Z,13.23
2022-08-16T18:04:48.468Z,11.90
2022-08-16T18:07:14.880Z,10.98
2022-08-16T18:09:42.942Z,12.52
2022-08-16T18:12:33.956Z,13.10
2022-08-16T18:15:12.186Z,10.07
2022-08-16T18:17:40.278Z,10.98
2022-08-16T18:20:28.852Z,10.02
2022-08-16T18:23:12.390Z,9.80
2022-08-16T18:25:46.981Z,10.10
2022-08-16T18:28:16.807Z,11.18
2022-08-16T18:30:51.434Z,12.70
2022-08-16T18:33:22.757Z,13.65
2022-08-16T18:35:57.028Z,14.75
2022-08-16T18:38:25.578Z,10.83
2022-08-16T18:40:53.618Z,10.25
2022-08-16T18:44:23.088Z,11.73
2022-08-16T18:46:11.512Z,10.00
2022-08-16T18:48:39.243Z,11.60
2022-08-16T18:51:10.471Z,10.73
2022-08-16T18:53:42.926Z,11.00
2022-08-16T18:56:10.731Z,12.05
2022-08-16T18:58:38.553Z,10.27
2022-08-16T19:01:06.840Z,13.50
2022-08-16T19:03:34.744Z,13.03
2022-08-16T19:06:06.602Z,15.30
2022-08-16T19:08:39.028Z,16.30
2022-08-16T19:11:09.311Z,12.95
2022-08-16T19:13:40.655Z,11.98
2022-08-16T19:16:08.754Z,13.83
2022-08-16T19:18:37.073Z,14.52
2022-08-16T19:21:09.753Z,16.00
2022-08-16T19:23:44.114Z,14.07
2022-08-16T19:26:24.403Z,13.82
2022-08-16T19:28:58.725Z,13.47
2022-08-16T19:31:32.340Z,15.82
2022-08-16T19:34:01.672Z,14.18
2022-08-16T19:36:37.665Z,15.18
2022-08-16T19:39:10.537Z,13.80
2022-08-16T19:41:41.821Z,14.30
2022-08-16T19:44:11.398Z,13.95
2022-08-16T19:46:45.091Z,12.90
2022-08-16T19:49:15.692Z,14.18
2022-08-16T19:51:48.621Z,13.13
2022-08-16T19:54:19.159Z,11.03
2022-08-16T19:56:48.058Z,13.23
2022-08-16T19:59:19.744Z,11.48
2022-08-16T20:01:54.549Z,14.20
2022-08-16T20:04:25.232Z,12.20
2022-08-16T20:06:56.170Z,12.47
2022-08-16T20:09:25.128Z,11.52
2022-08-16T20:11:54.398Z,13.75
2022-08-16T20:14:25.553Z,11.70
2022-08-16T20:16:59.666Z,13.18
2022-08-16T20:19:32.507Z,12.37
2022-08-16T20:22:25.609Z,15.27
2022-08-16T20:25:05.492Z,15.35
2022-08-16T20:27:33.576Z,17.92
2022-08-16T20:30:05.026Z,16.63
2022-08-16T20:32:36.082Z,17.73
2022-08-16T20:35:07.982Z,15.65
2022-08-16T20:37:39.015Z,14.27
2022-08-16T20:40:27.916Z,16.83
2022-08-16T20:43:10.784Z,15.20
2022-08-16T20:45:41.822Z,13.10
2022-08-16T20:48:13.588Z,16.02
2022-08-16T20:50:41.715Z,14.30
2022-08-16T20:53:11.254Z,12.60
2022-08-16T20:55:42.121Z,14.48
2022-08-16T20:58:10.759Z,13.40
2022-08-16T21:00:40.277Z,11.73
2022-08-16T21:03:14.704Z,11.57
2022-08-16T21:05:45.585Z,13.05
2022-08-16T21:08:29.421Z,14.13
2022-08-16T21:11:04.873Z,12.20
2022-08-16T21:13:36.215Z,11.80
2022-08-16T21:16:07.195Z,13.30
2022-08-16T21:18:35.502Z,11.85
2022-08-16T21:21:03.621Z,12.23
2022-08-16T21:23:31.318Z,11.30
2022-08-16T21:25:59.915Z,13.07
2022-08-16T21:28:38.721Z,11.68
2022-08-16T21:31:16.087Z,11.43
2022-08-16T21:33:54.163Z,13.63
2022-08-16T21:36:35.320Z,13.03
2022-08-16T21:39:07.271Z,13.95
2022-08-16T21:41:38.731Z,14.93
2022-08-16T21:44:06.631Z,14.52
2022-08-16T21:46:34.434Z,13.20
2022-08-16T21:49:04.972Z,13.23
2022-08-16T21:51:32.785Z,12.73
2022-08-16T21:54:00.448Z,14.05
2022-08-16T21:56:29.126Z,13.52
2022-08-16T21:58:56.999Z,13.57
2022-08-16T22:01:25.523Z,11.13
2022-08-16T22:04:03.633Z,10.88
2022-08-16T22:06:42.158Z,14.02
2022-08-16T22:09:12.266Z,10.90
2022-08-16T22:11:40.125Z,11.10
2022-08-16T22:14:08.232Z,11.87
2022-08-16T22:16:39.720Z,13.10
2022-08-16T22:19:08.353Z,12.43
2022-08-16T22:21:36.363Z,13.98
2022-08-16T22:24:05.045Z,11.88
2022-08-16T22:26:38.454Z,14.30
2022-08-16T22:29:12.618Z,13.88
2022-08-16T22:31:41.157Z,13.25
2022-08-16T22:34:09.266Z,11.73
2022-08-16T22:36:37.752Z,12.00
2022-08-16T22:39:08.474Z,12.77
2022-08-16T22:41:37.756Z,11.27
2022-08-16T22:44:07.680Z,15.55
2022-08-16T22:46:36.940Z,13.18
2022-08-16T22:49:05.931Z,13.57
2022-08-16T22:51:34.933Z,11.53
2022-08-16T22:54:34.155Z,14.40
2022-08-16T22:56:52.347Z,13.25
2022-08-16T22:59:20.129Z,13.05
2022-08-16T23:01:48.082Z,13.68
2022-08-16T23:04:16.148Z,12.53
2022-08-16T23:06:44.064Z,13.55
2022-08-16T23:09:11.714Z,15.68
2022-08-16T23:11:39.866Z,12.63
2022-08-16T23:14:07.612Z,13.20
2022-08-16T23:16:35.393Z,11.20
2022-08-16T23:19:06.631Z,12.82
2022-08-16T23:21:37.478Z,14.02
2022-08-16T23:24:06.979Z,12.07
2022-08-16T23:26:46.084Z,12.65
2022-08-16T23:29:24.974Z,10.83
2022-08-16T23:32:09.495Z,13.35
2022-08-16T23:34:37.822Z,12.93
2022-08-16T23:37:06.918Z,12.90
2022-08-16T23:39:36.170Z,13.02
2022-08-16T23:42:14.843Z,13.07
2022-08-16T23:44:58.534Z,12.20
2022-08-16T23:47:27.549Z,12.02
2022-08-16T23:50:03.454Z,13.55
2022-08-16T23:52:42.337Z,11.68
2022-08-16T23:55:20.665Z,12.53
2022-08-16T23:57:49.115Z,13.32
